Terminal Aerodrome Forecast
Issued by NWS

Home | Current Version | Previous Version | Text Only | Print | Product List | Glossary On
Versions: 1 2 3 4 5 6 7 8 9 10 11 12
679
FTUS42 TJSJ 052347
TAFJPS
TAF
TJPS 052347Z 0600/0624 VRB03KT P6SM FEW030
     FM061400 16013KT P6SM FEW030 SCT050
     FM062300 06004KT P6SM FEW030
      AMD NOT SKED TIL 060300=

USA.gov is the U.S. government's official web portal to all federal, state and local government web resources and services.